sensor_id;sensor_type;location;lat;lon;timestamp;P1;durP1;ratioP1;P2;durP2;ratioP2
49241;SDS011;35079;52.704;13.814;2022-08-25T00:01:12;12.05;;;6.40;;
49241;SDS011;35079;52.704;13.814;2022-08-25T00:03:39;9.75;;;6.88;;
49241;SDS011;35079;52.704;13.814;2022-08-25T00:06:06;9.70;;;7.18;;
49241;SDS011;35079;52.704;13.814;2022-08-25T00:08:32;10.98;;;7.07;;
49241;SDS011;35079;52.704;13.814;2022-08-25T00:11:02;10.25;;;6.65;;
49241;SDS011;35079;52.704;13.814;2022-08-25T00:13:35;10.82;;;7.38;;
49241;SDS011;35079;52.704;13.814;2022-08-25T00:16:03;11.77;;;6.72;;
49241;SDS011;35079;52.704;13.814;2022-08-25T00:18:28;9.85;;;7.45;;
49241;SDS011;35079;52.704;13.814;2022-08-25T00:20:54;13.45;;;7.38;;
49241;SDS011;35079;52.704;13.814;2022-08-25T00:23:20;9.57;;;7.30;;
49241;SDS011;35079;52.704;13.814;2022-08-25T00:25:46;16.17;;;8.25;;
49241;SDS011;35079;52.704;13.814;2022-08-25T00:28:12;10.95;;;7.03;;
49241;SDS011;35079;52.704;13.814;2022-08-25T00:30:40;13.63;;;7.55;;
49241;SDS011;35079;52.704;13.814;2022-08-25T00:33:06;10.30;;;7.47;;
49241;SDS011;35079;52.704;13.814;2022-08-25T00:35:32;10.00;;;6.90;;
49241;SDS011;35079;52.704;13.814;2022-08-25T00:37:58;13.95;;;7.80;;
49241;SDS011;35079;52.704;13.814;2022-08-25T00:40:24;12.15;;;7.65;;
49241;SDS011;35079;52.704;13.814;2022-08-25T00:42:51;12.32;;;7.45;;
49241;SDS011;35079;52.704;13.814;2022-08-25T00:45:17;12.50;;;7.95;;
49241;SDS011;35079;52.704;13.814;2022-08-25T00:47:43;13.85;;;8.02;;
49241;SDS011;35079;52.704;13.814;2022-08-25T00:50:08;15.07;;;8.13;;
49241;SDS011;35079;52.704;13.814;2022-08-25T00:52:40;14.35;;;7.53;;
49241;SDS011;35079;52.704;13.814;2022-08-25T00:55:13;16.13;;;8.38;;
49241;SDS011;35079;52.704;13.814;2022-08-25T00:57:46;16.05;;;7.47;;
49241;SDS011;35079;52.704;13.814;2022-08-25T01:00:40;14.45;;;8.20;;
49241;SDS011;35079;52.704;13.814;2022-08-25T01:03:05;15.05;;;7.72;;
49241;SDS011;35079;52.704;13.814;2022-08-25T01:05:32;10.52;;;7.65;;
49241;SDS011;35079;52.704;13.814;2022-08-25T01:07:58;10.02;;;7.80;;
49241;SDS011;35079;52.704;13.814;2022-08-25T01:10:27;11.73;;;8.13;;
49241;SDS011;35079;52.704;13.814;2022-08-25T01:12:55;20.25;;;8.38;;
49241;SDS011;35079;52.704;13.814;2022-08-25T01:15:25;14.15;;;8.48;;
49241;SDS011;35079;52.704;13.814;2022-08-25T01:17:53;12.63;;;8.55;;
49241;SDS011;35079;52.704;13.814;2022-08-25T01:20:23;13.93;;;9.00;;
49241;SDS011;35079;52.704;13.814;2022-08-25T01:22:51;14.88;;;9.27;;
49241;SDS011;35079;52.704;13.814;2022-08-25T01:27:55;13.32;;;8.32;;
49241;SDS011;35079;52.704;13.814;2022-08-25T01:30:21;12.07;;;7.68;;
49241;SDS011;35079;52.704;13.814;2022-08-25T01:32:47;13.63;;;9.18;;
49241;SDS011;35079;52.704;13.814;2022-08-25T01:35:13;14.88;;;9.50;;
49241;SDS011;35079;52.704;13.814;2022-08-25T01:37:39;11.68;;;8.07;;
49241;SDS011;35079;52.704;13.814;2022-08-25T01:40:05;13.60;;;9.27;;
49241;SDS011;35079;52.704;13.814;2022-08-25T01:45:19;14.88;;;8.82;;
49241;SDS011;35079;52.704;13.814;2022-08-25T01:47:45;15.70;;;9.10;;
49241;SDS011;35079;52.704;13.814;2022-08-25T01:50:11;13.57;;;8.88;;
49241;SDS011;35079;52.704;13.814;2022-08-25T01:52:44;15.25;;;8.95;;
49241;SDS011;35079;52.704;13.814;2022-08-25T01:55:14;10.77;;;9.20;;
49241;SDS011;35079;52.704;13.814;2022-08-25T01:57:40;14.10;;;9.38;;
49241;SDS011;35079;52.704;13.814;2022-08-25T02:00:06;12.05;;;9.20;;
49241;SDS011;35079;52.704;13.814;2022-08-25T02:02:34;14.55;;;10.32;;
49241;SDS011;35079;52.704;13.814;2022-08-25T02:05:00;16.05;;;10.38;;
49241;SDS011;35079;52.704;13.814;2022-08-25T02:07:26;14.57;;;9.75;;
49241;SDS011;35079;52.704;13.814;2022-08-25T02:09:52;15.20;;;9.32;;
49241;SDS011;35079;52.704;13.814;2022-08-25T02:12:17;16.58;;;9.93;;
49241;SDS011;35079;52.704;13.814;2022-08-25T02:14:43;16.75;;;9.85;;
49241;SDS011;35079;52.704;13.814;2022-08-25T02:17:09;12.80;;;8.65;;
49241;SDS011;35079;52.704;13.814;2022-08-25T02:19:35;20.98;;;10.77;;
49241;SDS011;35079;52.704;13.814;2022-08-25T02:22:01;15.40;;;10.27;;
49241;SDS011;35079;52.704;13.814;2022-08-25T02:24:27;11.73;;;9.40;;
49241;SDS011;35079;52.704;13.814;2022-08-25T02:26:53;17.90;;;10.82;;
49241;SDS011;35079;52.704;13.814;2022-08-25T02:29:19;14.35;;;9.98;;
49241;SDS011;35079;52.704;13.814;2022-08-25T02:31:45;13.30;;;9.75;;
49241;SDS011;35079;52.704;13.814;2022-08-25T02:34:11;13.45;;;10.70;;
49241;SDS011;35079;52.704;13.814;2022-08-25T02:36:39;17.20;;;11.00;;
49241;SDS011;35079;52.704;13.814;2022-08-25T02:39:06;15.95;;;11.38;;
49241;SDS011;35079;52.704;13.814;2022-08-25T02:41:32;18.60;;;12.20;;
49241;SDS011;35079;52.704;13.814;2022-08-25T02:43:59;19.02;;;13.65;;
49241;SDS011;35079;52.704;13.814;2022-08-25T02:46:26;17.45;;;12.80;;
49241;SDS011;35079;52.704;13.814;2022-08-25T02:48:52;22.73;;;15.00;;
49241;SDS011;35079;52.704;13.814;2022-08-25T02:51:18;18.55;;;14.25;;
49241;SDS011;35079;52.704;13.814;2022-08-25T02:53:46;23.92;;;14.98;;
49241;SDS011;35079;52.704;13.814;2022-08-25T02:56:12;21.50;;;15.13;;
49241;SDS011;35079;52.704;13.814;2022-08-25T02:58:39;24.40;;;15.38;;
49241;SDS011;35079;52.704;13.814;2022-08-25T03:01:05;27.60;;;16.13;;
49241;SDS011;35079;52.704;13.814;2022-08-25T03:03:33;20.27;;;15.45;;
49241;SDS011;35079;52.704;13.814;2022-08-25T03:05:59;18.83;;;15.00;;
49241;SDS011;35079;52.704;13.814;2022-08-25T03:08:26;21.85;;;15.98;;
49241;SDS011;35079;52.704;13.814;2022-08-25T03:10:52;23.13;;;16.52;;
49241;SDS011;35079;52.704;13.814;2022-08-25T03:13:17;26.52;;;16.17;;
49241;SDS011;35079;52.704;13.814;2022-08-25T03:15:43;25.70;;;16.42;;
49241;SDS011;35079;52.704;13.814;2022-08-25T03:18:09;22.92;;;16.20;;
49241;SDS011;35079;52.704;13.814;2022-08-25T03:20:36;25.23;;;16.67;;
49241;SDS011;35079;52.704;13.814;2022-08-25T03:23:03;24.85;;;16.05;;
49241;SDS011;35079;52.704;13.814;2022-08-25T03:25:29;31.92;;;16.85;;
49241;SDS011;35079;52.704;13.814;2022-08-25T03:28:13;27.07;;;17.10;;
49241;SDS011;35079;52.704;13.814;2022-08-25T03:30:39;23.08;;;17.00;;
49241;SDS011;35079;52.704;13.814;2022-08-25T03:33:06;34.08;;;16.38;;
49241;SDS011;35079;52.704;13.814;2022-08-25T03:35:31;24.08;;;16.27;;
49241;SDS011;35079;52.704;13.814;2022-08-25T03:37:57;23.48;;;16.75;;
49241;SDS011;35079;52.704;13.814;2022-08-25T03:40:24;35.22;;;17.42;;
49241;SDS011;35079;52.704;13.814;2022-08-25T03:42:50;30.90;;;17.00;;
49241;SDS011;35079;52.704;13.814;2022-08-25T03:45:16;30.27;;;15.55;;
49241;SDS011;35079;52.704;13.814;2022-08-25T03:47:44;22.05;;;15.18;;
49241;SDS011;35079;52.704;13.814;2022-08-25T03:50:15;35.97;;;17.25;;
49241;SDS011;35079;52.704;13.814;2022-08-25T03:52:41;26.30;;;16.38;;
49241;SDS011;35079;52.704;13.814;2022-08-25T03:55:08;29.00;;;17.05;;
49241;SDS011;35079;52.704;13.814;2022-08-25T03:57:35;25.98;;;15.80;;
49241;SDS011;35079;52.704;13.814;2022-08-25T04:00:03;31.35;;;15.88;;
49241;SDS011;35079;52.704;13.814;2022-08-25T04:02:30;39.95;;;16.95;;
49241;SDS011;35079;52.704;13.814;2022-08-25T04:04:57;27.15;;;17.08;;
49241;SDS011;35079;52.704;13.814;2022-08-25T04:07:23;31.45;;;16.63;;
49241;SDS011;35079;52.704;13.814;2022-08-25T04:09:48;26.73;;;17.67;;
49241;SDS011;35079;52.704;13.814;2022-08-25T04:12:14;23.92;;;16.40;;
49241;SDS011;35079;52.704;13.814;2022-08-25T04:14:40;26.52;;;18.20;;
49241;SDS011;35079;52.704;13.814;2022-08-25T04:17:06;28.80;;;18.30;;
49241;SDS011;35079;52.704;13.814;2022-08-25T04:19:32;25.52;;;16.90;;
49241;SDS011;35079;52.704;13.814;2022-08-25T04:21:59;28.48;;;17.70;;
49241;SDS011;35079;52.704;13.814;2022-08-25T04:24:25;37.35;;;18.35;;
49241;SDS011;35079;52.704;13.814;2022-08-25T04:26:51;32.38;;;18.45;;
49241;SDS011;35079;52.704;13.814;2022-08-25T04:29:18;25.05;;;17.17;;
49241;SDS011;35079;52.704;13.814;2022-08-25T04:31:46;24.58;;;17.52;;
49241;SDS011;35079;52.704;13.814;2022-08-25T04:34:14;29.38;;;18.80;;
49241;SDS011;35079;52.704;13.814;2022-08-25T04:36:41;26.88;;;17.90;;
49241;SDS011;35079;52.704;13.814;2022-08-25T04:39:07;33.38;;;18.85;;
49241;SDS011;35079;52.704;13.814;2022-08-25T04:41:32;25.55;;;17.60;;
49241;SDS011;35079;52.704;13.814;2022-08-25T04:43:58;24.85;;;16.85;;
49241;SDS011;35079;52.704;13.814;2022-08-25T04:46:27;27.02;;;17.73;;
49241;SDS011;35079;52.704;13.814;2022-08-25T04:48:55;29.73;;;17.48;;
49241;SDS011;35079;52.704;13.814;2022-08-25T04:51:30;28.02;;;17.60;;
49241;SDS011;35079;52.704;13.814;2022-08-25T04:53:59;23.83;;;16.67;;
49241;SDS011;35079;52.704;13.814;2022-08-25T04:56:26;26.08;;;17.90;;
49241;SDS011;35079;52.704;13.814;2022-08-25T04:58:53;43.65;;;18.83;;
49241;SDS011;35079;52.704;13.814;2022-08-25T05:01:20;26.83;;;17.95;;
49241;SDS011;35079;52.704;13.814;2022-08-25T05:03:51;32.97;;;17.08;;
49241;SDS011;35079;52.704;13.814;2022-08-25T05:06:22;30.65;;;19.05;;
49241;SDS011;35079;52.704;13.814;2022-08-25T05:08:48;27.25;;;18.20;;
49241;SDS011;35079;52.704;13.814;2022-08-25T05:11:15;23.92;;;17.35;;
49241;SDS011;35079;52.704;13.814;2022-08-25T05:13:44;28.85;;;16.92;;
49241;SDS011;35079;52.704;13.814;2022-08-25T05:16:11;40.40;;;18.80;;
49241;SDS011;35079;52.704;13.814;2022-08-25T05:18:37;40.58;;;18.95;;
49241;SDS011;35079;52.704;13.814;2022-08-25T05:21:05;39.70;;;20.05;;
49241;SDS011;35079;52.704;13.814;2022-08-25T05:23:32;34.38;;;19.83;;
49241;SDS011;35079;52.704;13.814;2022-08-25T05:26:03;32.58;;;19.17;;
49241;SDS011;35079;52.704;13.814;2022-08-25T05:28:38;39.20;;;20.40;;
49241;SDS011;35079;52.704;13.814;2022-08-25T05:31:05;44.17;;;20.35;;
49241;SDS011;35079;52.704;13.814;2022-08-25T05:33:32;45.35;;;20.75;;
49241;SDS011;35079;52.704;13.814;2022-08-25T05:35:59;41.97;;;21.55;;
49241;SDS011;35079;52.704;13.814;2022-08-25T05:38:24;39.20;;;21.85;;
49241;SDS011;35079;52.704;13.814;2022-08-25T05:40:51;36.33;;;20.73;;
49241;SDS011;35079;52.704;13.814;2022-08-25T05:43:21;35.40;;;20.77;;
49241;SDS011;35079;52.704;13.814;2022-08-25T05:45:46;35.25;;;21.95;;
49241;SDS011;35079;52.704;13.814;2022-08-25T05:48:12;59.28;;;23.10;;
49241;SDS011;35079;52.704;13.814;2022-08-25T05:50:38;35.10;;;21.60;;
49241;SDS011;35079;52.704;13.814;2022-08-25T05:53:03;35.53;;;21.73;;
49241;SDS011;35079;52.704;13.814;2022-08-25T05:55:29;40.22;;;21.95;;
49241;SDS011;35079;52.704;13.814;2022-08-25T05:57:55;42.33;;;22.33;;
49241;SDS011;35079;52.704;13.814;2022-08-25T06:00:20;37.30;;;22.67;;
49241;SDS011;35079;52.704;13.814;2022-08-25T06:02:46;40.90;;;22.25;;
49241;SDS011;35079;52.704;13.814;2022-08-25T06:05:17;36.80;;;21.27;;
49241;SDS011;35079;52.704;13.814;2022-08-25T06:07:46;30.15;;;20.15;;
49241;SDS011;35079;52.704;13.814;2022-08-25T06:10:14;26.58;;;18.73;;
49241;SDS011;35079;52.704;13.814;2022-08-25T06:12:41;31.38;;;19.60;;
49241;SDS011;35079;52.704;13.814;2022-08-25T06:15:09;36.15;;;20.25;;
49241;SDS011;35079;52.704;13.814;2022-08-25T06:17:40;29.10;;;19.30;;
49241;SDS011;35079;52.704;13.814;2022-08-25T06:20:16;26.77;;;17.70;;
49241;SDS011;35079;52.704;13.814;2022-08-25T06:22:44;28.00;;;18.65;;
49241;SDS011;35079;52.704;13.814;2022-08-25T06:25:11;23.15;;;17.67;;
49241;SDS011;35079;52.704;13.814;2022-08-25T06:27:38;23.80;;;16.77;;
49241;SDS011;35079;52.704;13.814;2022-08-25T06:30:05;22.15;;;16.25;;
49241;SDS011;35079;52.704;13.814;2022-08-25T06:32:33;23.10;;;15.75;;
49241;SDS011;35079;52.704;13.814;2022-08-25T06:35:00;22.90;;;16.40;;
49241;SDS011;35079;52.704;13.814;2022-08-25T06:37:28;20.38;;;15.95;;
49241;SDS011;35079;52.704;13.814;2022-08-25T06:39:54;18.38;;;15.32;;
49241;SDS011;35079;52.704;13.814;2022-08-25T06:42:20;19.63;;;15.10;;
49241;SDS011;35079;52.704;13.814;2022-08-25T06:44:45;20.40;;;16.00;;
49241;SDS011;35079;52.704;13.814;2022-08-25T06:47:11;20.80;;;14.80;;
49241;SDS011;35079;52.704;13.814;2022-08-25T06:49:39;17.58;;;14.25;;
49241;SDS011;35079;52.704;13.814;2022-08-25T06:52:06;19.05;;;13.75;;
49241;SDS011;35079;52.704;13.814;2022-08-25T06:54:32;21.63;;;15.18;;
49241;SDS011;35079;52.704;13.814;2022-08-25T06:56:58;19.08;;;14.52;;
49241;SDS011;35079;52.704;13.814;2022-08-25T06:59:25;16.58;;;13.25;;
49241;SDS011;35079;52.704;13.814;2022-08-25T07:01:51;16.45;;;13.85;;
49241;SDS011;35079;52.704;13.814;2022-08-25T07:04:17;17.25;;;13.98;;
49241;SDS011;35079;52.704;13.814;2022-08-25T07:06:42;16.35;;;13.18;;
49241;SDS011;35079;52.704;13.814;2022-08-25T07:09:09;16.40;;;12.63;;
49241;SDS011;35079;52.704;13.814;2022-08-25T07:11:35;16.27;;;13.27;;
49241;SDS011;35079;52.704;13.814;2022-08-25T07:14:02;15.45;;;12.95;;
49241;SDS011;35079;52.704;13.814;2022-08-25T07:16:30;17.25;;;13.70;;
49241;SDS011;35079;52.704;13.814;2022-08-25T07:18:56;15.77;;;13.23;;
49241;SDS011;35079;52.704;13.814;2022-08-25T07:21:23;18.13;;;14.70;;
49241;SDS011;35079;52.704;13.814;2022-08-25T07:23:49;19.02;;;14.75;;
49241;SDS011;35079;52.704;13.814;2022-08-25T07:26:16;18.70;;;14.50;;
49241;SDS011;35079;52.704;13.814;2022-08-25T07:28:44;17.27;;;13.80;;
49241;SDS011;35079;52.704;13.814;2022-08-25T07:31:10;18.15;;;14.20;;
49241;SDS011;35079;52.704;13.814;2022-08-25T07:33:36;19.13;;;14.48;;
49241;SDS011;35079;52.704;13.814;2022-08-25T07:36:02;18.33;;;14.45;;
49241;SDS011;35079;52.704;13.814;2022-08-25T07:38:28;18.55;;;14.68;;
49241;SDS011;35079;52.704;13.814;2022-08-25T07:41:01;17.85;;;14.32;;
49241;SDS011;35079;52.704;13.814;2022-08-25T07:43:27;21.48;;;13.68;;
49241;SDS011;35079;52.704;13.814;2022-08-25T07:45:53;18.13;;;13.63;;
49241;SDS011;35079;52.704;13.814;2022-08-25T07:48:18;15.75;;;12.55;;
49241;SDS011;35079;52.704;13.814;2022-08-25T07:50:45;20.52;;;13.75;;
49241;SDS011;35079;52.704;13.814;2022-08-25T07:53:12;15.50;;;12.60;;
49241;SDS011;35079;52.704;13.814;2022-08-25T07:55:39;17.58;;;13.43;;
49241;SDS011;35079;52.704;13.814;2022-08-25T07:58:06;19.48;;;12.73;;
49241;SDS011;35079;52.704;13.814;2022-08-25T08:00:33;15.93;;;11.35;;
49241;SDS011;35079;52.704;13.814;2022-08-25T08:03:01;14.98;;;12.40;;
49241;SDS011;35079;52.704;13.814;2022-08-25T08:05:29;19.83;;;13.68;;
49241;SDS011;35079;52.704;13.814;2022-08-25T08:07:55;18.33;;;14.05;;
49241;SDS011;35079;52.704;13.814;2022-08-25T08:10:21;16.60;;;12.95;;
49241;SDS011;35079;52.704;13.814;2022-08-25T08:12:49;17.17;;;12.50;;
49241;SDS011;35079;52.704;13.814;2022-08-25T08:15:15;15.75;;;11.52;;
49241;SDS011;35079;52.704;13.814;2022-08-25T08:17:40;16.73;;;12.75;;
49241;SDS011;35079;52.704;13.814;2022-08-25T08:20:07;15.13;;;13.32;;
49241;SDS011;35079;52.704;13.814;2022-08-25T08:22:34;15.70;;;12.90;;
49241;SDS011;35079;52.704;13.814;2022-08-25T08:25:01;16.17;;;12.85;;
49241;SDS011;35079;52.704;13.814;2022-08-25T08:27:26;16.05;;;12.15;;
49241;SDS011;35079;52.704;13.814;2022-08-25T08:29:52;13.23;;;10.93;;
49241;SDS011;35079;52.704;13.814;2022-08-25T08:32:18;13.93;;;10.05;;
49241;SDS011;35079;52.704;13.814;2022-08-25T08:34:45;14.95;;;10.95;;
49241;SDS011;35079;52.704;13.814;2022-08-25T08:37:11;14.35;;;10.57;;
49241;SDS011;35079;52.704;13.814;2022-08-25T08:39:37;14.65;;;11.15;;
49241;SDS011;35079;52.704;13.814;2022-08-25T08:47:20;13.10;;;8.82;;
49241;SDS011;35079;52.704;13.814;2022-08-25T08:55:50;12.57;;;9.32;;
49241;SDS011;35079;52.704;13.814;2022-08-25T08:58:22;10.30;;;7.70;;
49241;SDS011;35079;52.704;13.814;2022-08-25T09:00:55;11.30;;;9.10;;
49241;SDS011;35079;52.704;13.814;2022-08-25T09:06:06;12.65;;;6.70;;
49241;SDS011;35079;52.704;13.814;2022-08-25T09:08:37;11.45;;;7.70;;
49241;SDS011;35079;52.704;13.814;2022-08-25T09:16:24;9.73;;;6.38;;
49241;SDS011;35079;52.704;13.814;2022-08-25T09:19:17;10.35;;;6.55;;
49241;SDS011;35079;52.704;13.814;2022-08-25T09:22:06;8.40;;;6.50;;
49241;SDS011;35079;52.704;13.814;2022-08-25T09:24:49;9.07;;;6.35;;
49241;SDS011;35079;52.704;13.814;2022-08-25T09:27:35;13.48;;;6.57;;
49241;SDS011;35079;52.704;13.814;2022-08-25T09:30:15;8.32;;;5.63;;
49241;SDS011;35079;52.704;13.814;2022-08-25T09:32:46;9.35;;;5.28;;
49241;SDS011;35079;52.704;13.814;2022-08-25T09:35:28;10.45;;;5.57;;
49241;SDS011;35079;52.704;13.814;2022-08-25T09:37:56;9.80;;;5.28;;
49241;SDS011;35079;52.704;13.814;2022-08-25T09:40:24;7.60;;;4.55;;
49241;SDS011;35079;52.704;13.814;2022-08-25T09:42:53;8.75;;;4.80;;
49241;SDS011;35079;52.704;13.814;2022-08-25T09:48:21;10.27;;;4.63;;
49241;SDS011;35079;52.704;13.814;2022-08-25T09:50:55;8.90;;;4.78;;
49241;SDS011;35079;52.704;13.814;2022-08-25T09:53:24;8.60;;;4.30;;
49241;SDS011;35079;52.704;13.814;2022-08-25T09:55:52;6.90;;;4.60;;
49241;SDS011;35079;52.704;13.814;2022-08-25T09:58:23;11.80;;;4.13;;
49241;SDS011;35079;52.704;13.814;2022-08-25T10:01:04;6.75;;;4.03;;
49241;SDS011;35079;52.704;13.814;2022-08-25T10:03:36;9.68;;;4.35;;
49241;SDS011;35079;52.704;13.814;2022-08-25T10:06:05;10.00;;;5.03;;
49241;SDS011;35079;52.704;13.814;2022-08-25T10:11:02;10.65;;;4.78;;
49241;SDS011;35079;52.704;13.814;2022-08-25T10:16:11;10.85;;;4.65;;
49241;SDS011;35079;52.704;13.814;2022-08-25T10:19:02;10.18;;;4.22;;
49241;SDS011;35079;52.704;13.814;2022-08-25T10:21:32;9.73;;;4.25;;
49241;SDS011;35079;52.704;13.814;2022-08-25T10:23:58;10.05;;;4.25;;
49241;SDS011;35079;52.704;13.814;2022-08-25T10:29:21;11.80;;;4.88;;
49241;SDS011;35079;52.704;13.814;2022-08-25T10:34:55;10.30;;;4.63;;
49241;SDS011;35079;52.704;13.814;2022-08-25T10:37:34;9.52;;;4.57;;
49241;SDS011;35079;52.704;13.814;2022-08-25T10:40:30;13.25;;;4.72;;
49241;SDS011;35079;52.704;13.814;2022-08-25T10:43:13;12.95;;;5.72;;
49241;SDS011;35079;52.704;13.814;2022-08-25T10:45:42;14.02;;;4.97;;
49241;SDS011;35079;52.704;13.814;2022-08-25T10:51:10;10.65;;;5.45;;
49241;SDS011;35079;52.704;13.814;2022-08-25T10:53:43;12.43;;;6.00;;
49241;SDS011;35079;52.704;13.814;2022-08-25T10:56:30;14.85;;;5.15;;
49241;SDS011;35079;52.704;13.814;2022-08-25T11:04:40;13.50;;;4.75;;
49241;SDS011;35079;52.704;13.814;2022-08-25T11:07:22;10.87;;;4.60;;
49241;SDS011;35079;52.704;13.814;2022-08-25T11:09:53;8.40;;;4.53;;
49241;SDS011;35079;52.704;13.814;2022-08-25T11:14:51;9.50;;;4.85;;
49241;SDS011;35079;52.704;13.814;2022-08-25T11:17:24;14.73;;;5.07;;
49241;SDS011;35079;52.704;13.814;2022-08-25T11:19:58;11.98;;;4.88;;
49241;SDS011;35079;52.704;13.814;2022-08-25T11:22:33;10.13;;;4.45;;
49241;SDS011;35079;52.704;13.814;2022-08-25T11:25:19;8.10;;;3.78;;
49241;SDS011;35079;52.704;13.814;2022-08-25T11:27:57;13.68;;;4.18;;
49241;SDS011;35079;52.704;13.814;2022-08-25T11:30:32;10.43;;;4.15;;
49241;SDS011;35079;52.704;13.814;2022-08-25T11:32:57;10.50;;;4.32;;
49241;SDS011;35079;52.704;13.814;2022-08-25T11:35:28;10.90;;;4.20;;
49241;SDS011;35079;52.704;13.814;2022-08-25T11:40:37;12.02;;;4.97;;
49241;SDS011;35079;52.704;13.814;2022-08-25T11:43:43;13.85;;;5.25;;
49241;SDS011;35079;52.704;13.814;2022-08-25T11:51:46;12.57;;;5.18;;
49241;SDS011;35079;52.704;13.814;2022-08-25T12:10:21;11.57;;;4.18;;
49241;SDS011;35079;52.704;13.814;2022-08-25T12:12:58;11.48;;;4.53;;
49241;SDS011;35079;52.704;13.814;2022-08-25T12:23:28;12.63;;;4.50;;
49241;SDS011;35079;52.704;13.814;2022-08-25T12:25:59;16.85;;;4.78;;
49241;SDS011;35079;52.704;13.814;2022-08-25T12:28:50;14.15;;;4.38;;
49241;SDS011;35079;52.704;13.814;2022-08-25T12:31:36;12.73;;;4.68;;
49241;SDS011;35079;52.704;13.814;2022-08-25T12:36:58;12.10;;;4.43;;
49241;SDS011;35079;52.704;13.814;2022-08-25T12:39:29;19.08;;;5.30;;
49241;SDS011;35079;52.704;13.814;2022-08-25T12:42:04;10.27;;;4.80;;
49241;SDS011;35079;52.704;13.814;2022-08-25T12:44:47;14.05;;;5.20;;
49241;SDS011;35079;52.704;13.814;2022-08-25T12:47:38;20.75;;;4.70;;
49241;SDS011;35079;52.704;13.814;2022-08-25T12:55:37;12.27;;;4.72;;
49241;SDS011;35079;52.704;13.814;2022-08-25T12:58:08;12.90;;;4.45;;
49241;SDS011;35079;52.704;13.814;2022-08-25T13:06:13;11.73;;;4.70;;
49241;SDS011;35079;52.704;13.814;2022-08-25T13:11:51;16.13;;;5.07;;
49241;SDS011;35079;52.704;13.814;2022-08-25T13:16:58;13.10;;;4.85;;
49241;SDS011;35079;52.704;13.814;2022-08-25T13:19:28;12.85;;;4.88;;
49241;SDS011;35079;52.704;13.814;2022-08-25T13:21:54;15.60;;;5.18;;
49241;SDS011;35079;52.704;13.814;2022-08-25T13:24:27;15.15;;;4.93;;
49241;SDS011;35079;52.704;13.814;2022-08-25T13:26:59;17.08;;;5.05;;
49241;SDS011;35079;52.704;13.814;2022-08-25T13:29:31;12.38;;;4.68;;
49241;SDS011;35079;52.704;13.814;2022-08-25T13:32:03;14.40;;;4.63;;
49241;SDS011;35079;52.704;13.814;2022-08-25T13:34:34;12.68;;;4.88;;
49241;SDS011;35079;52.704;13.814;2022-08-25T13:37:09;10.20;;;3.85;;
49241;SDS011;35079;52.704;13.814;2022-08-25T13:40:08;14.07;;;4.65;;
49241;SDS011;35079;52.704;13.814;2022-08-25T13:42:47;11.05;;;4.70;;
49241;SDS011;35079;52.704;13.814;2022-08-25T13:45:16;13.57;;;4.40;;
49241;SDS011;35079;52.704;13.814;2022-08-25T13:47:44;12.60;;;4.68;;
49241;SDS011;35079;52.704;13.814;2022-08-25T13:50:16;10.98;;;4.93;;
49241;SDS011;35079;52.704;13.814;2022-08-25T13:52:44;15.65;;;4.82;;
49241;SDS011;35079;52.704;13.814;2022-08-25T13:55:24;12.65;;;4.38;;
49241;SDS011;35079;52.704;13.814;2022-08-25T13:57:55;13.70;;;4.82;;
49241;SDS011;35079;52.704;13.814;2022-08-25T14:00:42;9.27;;;4.80;;
49241;SDS011;35079;52.704;13.814;2022-08-25T14:03:27;13.27;;;4.65;;
49241;SDS011;35079;52.704;13.814;2022-08-25T14:08:41;10.57;;;4.07;;
49241;SDS011;35079;52.704;13.814;2022-08-25T14:11:13;13.45;;;4.97;;
49241;SDS011;35079;52.704;13.814;2022-08-25T14:14:02;14.38;;;4.70;;
49241;SDS011;35079;52.704;13.814;2022-08-25T14:16:35;13.45;;;4.95;;
49241;SDS011;35079;52.704;13.814;2022-08-25T14:19:13;15.80;;;4.55;;
49241;SDS011;35079;52.704;13.814;2022-08-25T14:21:40;17.95;;;4.70;;
49241;SDS011;35079;52.704;13.814;2022-08-25T14:24:06;15.65;;;4.95;;
49241;SDS011;35079;52.704;13.814;2022-08-25T14:26:32;12.93;;;4.80;;
49241;SDS011;35079;52.704;13.814;2022-08-25T14:28:58;18.55;;;5.18;;
49241;SDS011;35079;52.704;13.814;2022-08-25T14:31:28;12.55;;;4.88;;
49241;SDS011;35079;52.704;13.814;2022-08-25T14:34:00;14.35;;;5.00;;
49241;SDS011;35079;52.704;13.814;2022-08-25T14:36:29;20.58;;;5.40;;
49241;SDS011;35079;52.704;13.814;2022-08-25T14:38:57;15.85;;;5.20;;
49241;SDS011;35079;52.704;13.814;2022-08-25T14:41:24;17.63;;;5.00;;
49241;SDS011;35079;52.704;13.814;2022-08-25T14:43:50;16.98;;;5.07;;
49241;SDS011;35079;52.704;13.814;2022-08-25T14:48:51;11.35;;;4.32;;
49241;SDS011;35079;52.704;13.814;2022-08-25T14:51:20;13.90;;;4.72;;
49241;SDS011;35079;52.704;13.814;2022-08-25T14:53:47;17.08;;;5.40;;
49241;SDS011;35079;52.704;13.814;2022-08-25T14:56:13;12.38;;;5.18;;
49241;SDS011;35079;52.704;13.814;2022-08-25T14:58:39;12.80;;;4.38;;
49241;SDS011;35079;52.704;13.814;2022-08-25T15:01:05;13.20;;;4.60;;
49241;SDS011;35079;52.704;13.814;2022-08-25T15:03:38;13.13;;;4.43;;
49241;SDS011;35079;52.704;13.814;2022-08-25T15:06:12;18.15;;;4.60;;
49241;SDS011;35079;52.704;13.814;2022-08-25T15:08:40;15.50;;;4.75;;
49241;SDS011;35079;52.704;13.814;2022-08-25T15:11:24;21.35;;;5.22;;
49241;SDS011;35079;52.704;13.814;2022-08-25T15:13:51;18.13;;;4.90;;
49241;SDS011;35079;52.704;13.814;2022-08-25T15:16:21;21.77;;;6.35;;
49241;SDS011;35079;52.704;13.814;2022-08-25T15:18:50;14.60;;;5.22;;
49241;SDS011;35079;52.704;13.814;2022-08-25T15:21:16;21.33;;;5.22;;
49241;SDS011;35079;52.704;13.814;2022-08-25T15:23:41;21.20;;;4.72;;
49241;SDS011;35079;52.704;13.814;2022-08-25T15:26:11;19.05;;;5.53;;
49241;SDS011;35079;52.704;13.814;2022-08-25T15:28:38;21.60;;;5.13;;
49241;SDS011;35079;52.704;13.814;2022-08-25T15:31:12;12.93;;;4.93;;
49241;SDS011;35079;52.704;13.814;2022-08-25T15:33:38;17.73;;;5.20;;
49241;SDS011;35079;52.704;13.814;2022-08-25T15:36:08;18.48;;;5.18;;
49241;SDS011;35079;52.704;13.814;2022-08-25T15:38:37;14.02;;;5.13;;
49241;SDS011;35079;52.704;13.814;2022-08-25T15:41:03;15.68;;;4.75;;
49241;SDS011;35079;52.704;13.814;2022-08-25T15:43:30;15.27;;;4.82;;
49241;SDS011;35079;52.704;13.814;2022-08-25T15:45:55;21.83;;;5.00;;
49241;SDS011;35079;52.704;13.814;2022-08-25T15:48:21;14.32;;;4.93;;
49241;SDS011;35079;52.704;13.814;2022-08-25T15:50:54;23.85;;;5.13;;
49241;SDS011;35079;52.704;13.814;2022-08-25T15:53:21;16.88;;;5.07;;
49241;SDS011;35079;52.704;13.814;2022-08-25T15:55:47;15.98;;;4.97;;
49241;SDS011;35079;52.704;13.814;2022-08-25T15:58:13;21.92;;;5.32;;
49241;SDS011;35079;52.704;13.814;2022-08-25T16:00:41;19.67;;;5.88;;
49241;SDS011;35079;52.704;13.814;2022-08-25T16:03:07;23.60;;;5.28;;
49241;SDS011;35079;52.704;13.814;2022-08-25T16:05:34;18.67;;;5.03;;
49241;SDS011;35079;52.704;13.814;2022-08-25T16:08:00;20.42;;;4.82;;
49241;SDS011;35079;52.704;13.814;2022-08-25T16:10:26;18.17;;;5.63;;
49241;SDS011;35079;52.704;13.814;2022-08-25T16:12:52;19.15;;;5.30;;
49241;SDS011;35079;52.704;13.814;2022-08-25T16:15:17;17.90;;;5.32;;